Main page
METAR-TAF:

METAR-TAF

Airports :

Murcia–San Javier Airport

Murcia, Spain

latitude: 37-47N, longitude: 000-48W, elevation: 5 m

Current weather observation

The report was made 33 minutes ago, at 23:30 UTC
Wind 4 kt from the Northwest
Temperature 22°C
Humidity 78%
Pressure 1018 hPa
Visibility 10 km or more
no clouds below 1500 m and no cumulonimbus

METAR: LELC 052330Z AUTO 32004KT CAVOK 22/18 Q1018

Time: 02:03 (00:03 UTC)

Forecast

The report was made 1 hour and 3 minutes ago, at 23:00 UTC
Forecast valid from 06 at 00 UTC to 06 at 24 UTC
Wind 5 kt from the North/Northwest
Visibility 10 km or more
no clouds below 1500 m and no cumulonimbus
Becoming
from 06 at 09 UTC to 06 at 11 UTC
Wind 10 kt from the East/Southeast
Becoming
from 06 at 20 UTC to 06 at 22 UTC
Wind 2 kt from variable directions

TAF: LELC 052300Z 0600/0624 34005KT CAVOK TX30/0613Z TN20/0605Z BECMG 0609/0611 12010KT BECMG 0620/0622 VRB02KT

Weather observations and forecasts of more than 4000 airports (METAR and TAF reports).

The available stations are represented by yellow and red dots on the map.

Hover mouse over dot to see the name of the station.

Then click to see weather observations and forecasts.

To change the map : click on the green buttons with a black cross to zoom in, on the green button with a dash to zoom out, or on the green arrows for adjacent maps.


METAR-TAF: